Impacts TAF Board
For situational awareness. Not to be used for flight planning purposes.
IDs:

KTPA - Tampa Intl Arpt, FL, US

Issued at 1518 UTC 03 Dec 2021
Updated at 1639 UTC 03 Dec 2021
Potential Impact None Slight Moderate High
Time1553Z 03/17Z 03/18Z 03/19Z 03/20Z 03/21Z 03/22Z 03/23Z 04/00Z 04/01Z 04/02Z 04/03Z 04/04Z 04/05Z>>
Type OBS PRVL PRVL PRVL PRVL PRVL PRVL PRVL PRVL PRVL PRVL PRVL PRVL PRVL
VIS 8 >6 >6 >6 >6 >6 >6 >6 >6 >6 >6 >6 >6 >6
CIG -- -- -- -- -- -- -- -- -- -- -- -- -- --
Cover FEW FEW FEW FEW FEW FEW FEW FEW FEW FEW FEW FEW FEW FEW
FltCat VFR VFR VFR VFR VFR VFR VFR VFR VFR VFR VFR VFR VFR VFR
WX -- -- -- -- -- -- -- -- -- -- -- -- -- --
WDir 350 280 280 280 280 280 280 280 280 280 VRB VRB VRB VRB
WSpd 8 6 6 6 6 6 6 6 6 6 3 3 3 3
WGst -- -- -- -- -- -- -- -- -- -- -- -- -- --
WSHgt -- -- -- -- -- -- -- -- -- -- -- -- -- --
WSDir -- -- -- -- -- -- -- -- -- -- -- -- -- --
WSSpd -- -- -- -- -- -- -- -- -- -- -- -- -- --
Raw TAF
KTPA 031518Z 0315/0418 VRB04KT 5SM BR FEW250
  FM031600 28006KT P6SM FEW250
  FM040200 VRB03KT P6SM FEW250
  FM040800 00000KT 6SM BR FEW005 SCT010


Raw METAR
KTPA 031553Z 35008KT 8SM FEW020 FEW250 22/15 A3018 RMK AO2 SLP219 T02220150
KTPA 031453Z 24003KT 5SM BR FEW015 SCT150 18/15 A3019 RMK AO2 SLP222 T01830150 53018
KTPA 031418Z 00000KT 4SM BR SCT120 18/14 A3017 RMK AO2 T01780144
KTPA 031353Z VRB03KT 1 1/2SM BR FEW002 SCT100 16/13 A3017 RMK AO2 SLP215 T01610133

METAR Board
Radar Display
Forecast Discussion
For situational awareness. Not to be used for flight planning purposes.